sensor_id;sensor_type;location;lat;lon;timestamp;temperature;humidity
1992;DHT22;997;48.448;8.924;2022-10-29T07:19:49;12.70;99.90
1992;DHT22;997;48.448;8.924;2022-10-29T07:22:15;12.80;99.90
1992;DHT22;997;48.448;8.924;2022-10-29T07:24:40;13.10;99.90
1992;DHT22;997;48.448;8.924;2022-10-29T07:27:06;13.50;99.90
1992;DHT22;997;48.448;8.924;2022-10-29T07:29:32;13.90;99.90
1992;DHT22;997;48.448;8.924;2022-10-29T07:31:57;14.10;99.90
1992;DHT22;997;48.448;8.924;2022-10-29T07:34:23;14.40;99.90
1992;DHT22;997;48.448;8.924;2022-10-29T07:36:49;14.60;99.90
1992;DHT22;997;48.448;8.924;2022-10-29T07:39:14;14.80;99.90
1992;DHT22;997;48.448;8.924;2022-10-29T07:41:40;15.00;99.90
1992;DHT22;997;48.448;8.924;2022-10-29T07:44:06;15.20;99.90
1992;DHT22;997;48.448;8.924;2022-10-29T07:46:31;15.20;99.90
1992;DHT22;997;48.448;8.924;2022-10-29T07:48:57;15.20;99.90
1992;DHT22;997;48.448;8.924;2022-10-29T07:51:23;15.20;99.90
1992;DHT22;997;48.448;8.924;2022-10-29T07:53:49;15.20;99.90
1992;DHT22;997;48.448;8.924;2022-10-29T07:56:14;15.30;99.90
1992;DHT22;997;48.448;8.924;2022-10-29T07:58:40;15.20;99.90
1992;DHT22;997;48.448;8.924;2022-10-29T08:01:06;15.30;99.90
1992;DHT22;997;48.448;8.924;2022-10-29T08:03:31;15.40;99.90
1992;DHT22;997;48.448;8.924;2022-10-29T08:05:58;15.50;99.90
1992;DHT22;997;48.448;8.924;2022-10-29T08:08:24;15.60;99.90
1992;DHT22;997;48.448;8.924;2022-10-29T08:10:50;15.70;99.90
1992;DHT22;997;48.448;8.924;2022-10-29T08:13:16;15.90;99.90
1992;DHT22;997;48.448;8.924;2022-10-29T08:15:45;16.10;99.90
1992;DHT22;997;48.448;8.924;2022-10-29T08:18:14;16.20;99.90
1992;DHT22;997;48.448;8.924;2022-10-29T08:20:40;16.30;99.90
1992;DHT22;997;48.448;8.924;2022-10-29T08:23:06;16.40;99.90
1992;DHT22;997;48.448;8.924;2022-10-29T08:25:32;16.50;99.90
1992;DHT22;997;48.448;8.924;2022-10-29T08:27:59;16.70;99.90
1992;DHT22;997;48.448;8.924;2022-10-29T08:30:25;16.90;99.90
1992;DHT22;997;48.448;8.924;2022-10-29T08:32:51;17.10;99.90
1992;DHT22;997;48.448;8.924;2022-10-29T08:35:16;17.20;99.90
1992;DHT22;997;48.448;8.924;2022-10-29T08:37:43;17.30;99.90
1992;DHT22;997;48.448;8.924;2022-10-29T08:40:30;17.40;99.90
1992;DHT22;997;48.448;8.924;2022-10-29T08:45:51;17.60;99.90
1992;DHT22;997;48.448;8.924;2022-10-29T08:51:09;17.80;99.90
1992;DHT22;997;48.448;8.924;2022-10-29T08:53:44;17.90;99.90
1992;DHT22;997;48.448;8.924;2022-10-29T08:56:26;18.00;99.90
1992;DHT22;997;48.448;8.924;2022-10-29T09:01:26;18.20;99.90
1992;DHT22;997;48.448;8.924;2022-10-29T09:03:52;18.30;99.90
1992;DHT22;997;48.448;8.924;2022-10-29T09:09:09;18.70;99.90
1992;DHT22;997;48.448;8.924;2022-10-29T09:15:17;19.00;99.90
1992;DHT22;997;48.448;8.924;2022-10-29T09:26:16;19.30;99.90
1992;DHT22;997;48.448;8.924;2022-10-29T09:31:39;19.60;99.90
1992;DHT22;997;48.448;8.924;2022-10-29T09:34:12;19.70;99.90
1992;DHT22;997;48.448;8.924;2022-10-29T09:36:43;19.80;99.90
1992;DHT22;997;48.448;8.924;2022-10-29T09:39:12;19.80;99.90
1992;DHT22;997;48.448;8.924;2022-10-29T09:41:38;19.90;99.90
1992;DHT22;997;48.448;8.924;2022-10-29T09:44:21;20.00;99.90
1992;DHT22;997;48.448;8.924;2022-10-29T09:52:12;20.20;99.90
1992;DHT22;997;48.448;8.924;2022-10-29T09:54:39;20.30;99.90
1992;DHT22;997;48.448;8.924;2022-10-29T09:57:06;20.40;99.90
1992;DHT22;997;48.448;8.924;2022-10-29T09:59:43;20.40;99.90
1992;DHT22;997;48.448;8.924;2022-10-29T10:02:34;20.50;99.90
1992;DHT22;997;48.448;8.924;2022-10-29T10:05:24;20.70;99.90
1992;DHT22;997;48.448;8.924;2022-10-29T10:08:10;20.90;99.90
1992;DHT22;997;48.448;8.924;2022-10-29T10:13:17;21.20;99.90
1992;DHT22;997;48.448;8.924;2022-10-29T10:15:49;21.40;99.90
1992;DHT22;997;48.448;8.924;2022-10-29T10:21:10;21.60;99.90
1992;DHT22;997;48.448;8.924;2022-10-29T10:23:48;21.80;99.90
1992;DHT22;997;48.448;8.924;2022-10-29T10:29:16;22.00;99.90
1992;DHT22;997;48.448;8.924;2022-10-29T10:34:19;22.00;99.90
1992;DHT22;997;48.448;8.924;2022-10-29T10:36:49;22.10;99.90
1992;DHT22;997;48.448;8.924;2022-10-29T10:41:50;22.40;99.90
1992;DHT22;997;48.448;8.924;2022-10-29T10:44:17;22.40;99.90
1992;DHT22;997;48.448;8.924;2022-10-29T10:46:44;22.30;99.90
1992;DHT22;997;48.448;8.924;2022-10-29T10:51:37;22.40;99.90
1992;DHT22;997;48.448;8.924;2022-10-29T10:57:03;22.50;99.90
1992;DHT22;997;48.448;8.924;2022-10-29T11:05:04;23.00;99.90
1992;DHT22;997;48.448;8.924;2022-10-29T11:07:35;23.10;99.90
1992;DHT22;997;48.448;8.924;2022-10-29T11:10:04;23.10;99.90
1992;DHT22;997;48.448;8.924;2022-10-29T11:12:33;23.00;99.90
1992;DHT22;997;48.448;8.924;2022-10-29T11:15:32;23.20;99.90
1992;DHT22;997;48.448;8.924;2022-10-29T11:20:37;23.20;99.90
1992;DHT22;997;48.448;8.924;2022-10-29T11:26:24;23.30;99.90
1992;DHT22;997;48.448;8.924;2022-10-29T11:31:48;23.60;99.90
1992;DHT22;997;48.448;8.924;2022-10-29T11:34:22;23.60;99.90
1992;DHT22;997;48.448;8.924;2022-10-29T11:37:36;23.80;99.90
1992;DHT22;997;48.448;8.924;2022-10-29T11:42:22;24.10;99.90
1992;DHT22;997;48.448;8.924;2022-10-29T11:44:47;24.30;99.90
1992;DHT22;997;48.448;8.924;2022-10-29T11:47:38;24.30;99.90
1992;DHT22;997;48.448;8.924;2022-10-29T11:50:51;24.40;99.90
1992;DHT22;997;48.448;8.924;2022-10-29T11:55:48;24.60;99.90
1992;DHT22;997;48.448;8.924;2022-10-29T11:58:29;24.50;99.90
1992;DHT22;997;48.448;8.924;2022-10-29T12:04:33;24.20;99.90
1992;DHT22;997;48.448;8.924;2022-10-29T12:15:35;24.10;99.90
1992;DHT22;997;48.448;8.924;2022-10-29T12:20:49;24.30;99.90
1992;DHT22;997;48.448;8.924;2022-10-29T12:30:59;24.30;99.90
1992;DHT22;997;48.448;8.924;2022-10-29T12:34:02;24.30;99.90
1992;DHT22;997;48.448;8.924;2022-10-29T12:39:04;24.50;99.90
1992;DHT22;997;48.448;8.924;2022-10-29T12:41:41;24.70;99.90
1992;DHT22;997;48.448;8.924;2022-10-29T12:44:32;24.70;99.90
1992;DHT22;997;48.448;8.924;2022-10-29T12:52:34;24.80;99.90
1992;DHT22;997;48.448;8.924;2022-10-29T12:54:57;24.80;99.90
1992;DHT22;997;48.448;8.924;2022-10-29T12:57:35;24.90;99.90
1992;DHT22;997;48.448;8.924;2022-10-29T13:02:49;25.00;99.90
1992;DHT22;997;48.448;8.924;2022-10-29T13:05:37;25.10;99.90
1992;DHT22;997;48.448;8.924;2022-10-29T13:15:39;25.20;99.90
1992;DHT22;997;48.448;8.924;2022-10-29T13:21:03;25.40;99.90
1992;DHT22;997;48.448;8.924;2022-10-29T13:23:34;25.50;99.90
1992;DHT22;997;48.448;8.924;2022-10-29T13:26:04;25.60;99.90
1992;DHT22;997;48.448;8.924;2022-10-29T13:35:58;26.00;99.90
1992;DHT22;997;48.448;8.924;2022-10-29T13:38:40;26.00;99.90
1992;DHT22;997;48.448;8.924;2022-10-29T13:44:00;26.10;99.90
1992;DHT22;997;48.448;8.924;2022-10-29T13:49:45;26.30;99.90
1992;DHT22;997;48.448;8.924;2022-10-29T13:52:17;26.50;99.90
1992;DHT22;997;48.448;8.924;2022-10-29T13:55:06;26.50;99.90
1992;DHT22;997;48.448;8.924;2022-10-29T14:00:27;26.70;99.90
1992;DHT22;997;48.448;8.924;2022-10-29T14:03:15;26.80;99.90
1992;DHT22;997;48.448;8.924;2022-10-29T14:05:50;26.90;99.90
1992;DHT22;997;48.448;8.924;2022-10-29T14:10:58;27.10;99.90
1992;DHT22;997;48.448;8.924;2022-10-29T14:13:53;27.20;99.90
1992;DHT22;997;48.448;8.924;2022-10-29T14:16:31;27.20;99.90
1992;DHT22;997;48.448;8.924;2022-10-29T14:19:12;27.30;99.90
1992;DHT22;997;48.448;8.924;2022-10-29T14:21:39;27.40;99.90
1992;DHT22;997;48.448;8.924;2022-10-29T14:24:08;27.40;99.90
1992;DHT22;997;48.448;8.924;2022-10-29T14:26:40;27.30;99.90
1992;DHT22;997;48.448;8.924;2022-10-29T14:29:24;27.30;99.90
1992;DHT22;997;48.448;8.924;2022-10-29T14:32:08;27.30;99.90
1992;DHT22;997;48.448;8.924;2022-10-29T14:34:36;27.30;99.90
1992;DHT22;997;48.448;8.924;2022-10-29T14:37:04;27.30;99.90
1992;DHT22;997;48.448;8.924;2022-10-29T14:39:45;27.20;99.90
1992;DHT22;997;48.448;8.924;2022-10-29T14:42:16;27.00;99.90
1992;DHT22;997;48.448;8.924;2022-10-29T14:44:47;26.80;99.90
1992;DHT22;997;48.448;8.924;2022-10-29T14:47:22;26.60;99.90
1992;DHT22;997;48.448;8.924;2022-10-29T14:49:49;26.40;99.90
1992;DHT22;997;48.448;8.924;2022-10-29T14:54:51;26.00;99.90
1992;DHT22;997;48.448;8.924;2022-10-29T14:57:20;25.80;99.90
1992;DHT22;997;48.448;8.924;2022-10-29T14:59:56;25.60;99.90
1992;DHT22;997;48.448;8.924;2022-10-29T15:02:22;25.60;99.90
1992;DHT22;997;48.448;8.924;2022-10-29T15:04:54;25.50;99.90
1992;DHT22;997;48.448;8.924;2022-10-29T15:12:38;25.40;99.90
1992;DHT22;997;48.448;8.924;2022-10-29T15:15:21;25.40;99.90
1992;DHT22;997;48.448;8.924;2022-10-29T15:17:57;25.40;99.90
1992;DHT22;997;48.448;8.924;2022-10-29T15:23:26;25.30;99.90
1992;DHT22;997;48.448;8.924;2022-10-29T15:26:04;25.30;99.90
1992;DHT22;997;48.448;8.924;2022-10-29T15:28:38;25.30;99.90
1992;DHT22;997;48.448;8.924;2022-10-29T15:31:04;25.30;99.90
1992;DHT22;997;48.448;8.924;2022-10-29T15:33:31;25.20;99.90
1992;DHT22;997;48.448;8.924;2022-10-29T15:35:58;25.20;99.90
1992;DHT22;997;48.448;8.924;2022-10-29T15:43:38;25.00;99.90
1992;DHT22;997;48.448;8.924;2022-10-29T15:46:11;25.00;99.90
1992;DHT22;997;48.448;8.924;2022-10-29T15:48:44;24.90;99.90
1992;DHT22;997;48.448;8.924;2022-10-29T15:51:10;24.80;99.90
1992;DHT22;997;48.448;8.924;2022-10-29T15:53:36;24.80;99.90
1992;DHT22;997;48.448;8.924;2022-10-29T15:56:02;24.70;99.90
1992;DHT22;997;48.448;8.924;2022-10-29T15:58:28;24.60;99.90
1992;DHT22;997;48.448;8.924;2022-10-29T16:00:54;24.50;99.90
1992;DHT22;997;48.448;8.924;2022-10-29T16:03:25;24.40;99.90
1992;DHT22;997;48.448;8.924;2022-10-29T16:05:58;24.30;99.90
1992;DHT22;997;48.448;8.924;2022-10-29T16:08:41;24.20;99.90
1992;DHT22;997;48.448;8.924;2022-10-29T16:11:12;24.10;99.90
1992;DHT22;997;48.448;8.924;2022-10-29T16:13:38;23.90;99.90
1992;DHT22;997;48.448;8.924;2022-10-29T16:16:05;23.90;99.90
1992;DHT22;997;48.448;8.924;2022-10-29T16:18:34;23.80;99.90
1992;DHT22;997;48.448;8.924;2022-10-29T16:21:01;23.70;99.90
1992;DHT22;997;48.448;8.924;2022-10-29T16:23:29;23.60;99.90
1992;DHT22;997;48.448;8.924;2022-10-29T16:25:55;23.50;99.90
1992;DHT22;997;48.448;8.924;2022-10-29T16:28:20;23.40;99.90
1992;DHT22;997;48.448;8.924;2022-10-29T16:30:51;23.30;99.90
1992;DHT22;997;48.448;8.924;2022-10-29T16:33:18;23.20;99.90
1992;DHT22;997;48.448;8.924;2022-10-29T16:35:44;23.20;99.90
1992;DHT22;997;48.448;8.924;2022-10-29T16:38:09;23.10;99.90
1992;DHT22;997;48.448;8.924;2022-10-29T16:40:36;23.00;99.90
1992;DHT22;997;48.448;8.924;2022-10-29T16:43:02;23.10;99.90
1992;DHT22;997;48.448;8.924;2022-10-29T16:45:29;23.10;99.90
1992;DHT22;997;48.448;8.924;2022-10-29T16:47:55;22.90;99.90
1992;DHT22;997;48.448;8.924;2022-10-29T16:50:26;22.80;99.90
1992;DHT22;997;48.448;8.924;2022-10-29T16:53:06;22.70;99.90
1992;DHT22;997;48.448;8.924;2022-10-29T16:55:35;22.60;99.90
1992;DHT22;997;48.448;8.924;2022-10-29T16:58:01;22.60;99.90
1992;DHT22;997;48.448;8.924;2022-10-29T17:00:26;22.50;99.90
1992;DHT22;997;48.448;8.924;2022-10-29T17:02:58;22.40;99.90
1992;DHT22;997;48.448;8.924;2022-10-29T17:05:24;22.30;99.90
1992;DHT22;997;48.448;8.924;2022-10-29T17:07:52;22.20;99.90
1992;DHT22;997;48.448;8.924;2022-10-29T17:10:19;22.20;99.90
1992;DHT22;997;48.448;8.924;2022-10-29T17:12:45;22.00;99.90
1992;DHT22;997;48.448;8.924;2022-10-29T17:15:11;21.90;99.90
1992;DHT22;997;48.448;8.924;2022-10-29T17:17:37;21.80;99.90
1992;DHT22;997;48.448;8.924;2022-10-29T17:20:03;21.80;99.90
1992;DHT22;997;48.448;8.924;2022-10-29T17:22:29;21.70;99.90
1992;DHT22;997;48.448;8.924;2022-10-29T17:24:55;21.50;99.90
1992;DHT22;997;48.448;8.924;2022-10-29T17:27:21;21.40;99.90
1992;DHT22;997;48.448;8.924;2022-10-29T17:29:47;21.20;99.90
1992;DHT22;997;48.448;8.924;2022-10-29T17:32:13;21.10;99.90
1992;DHT22;997;48.448;8.924;2022-10-29T17:34:38;21.00;99.90
1992;DHT22;997;48.448;8.924;2022-10-29T17:37:04;20.90;99.90
1992;DHT22;997;48.448;8.924;2022-10-29T17:39:31;20.80;99.90
1992;DHT22;997;48.448;8.924;2022-10-29T17:41:56;20.80;99.90
1992;DHT22;997;48.448;8.924;2022-10-29T17:44:22;20.70;99.90
1992;DHT22;997;48.448;8.924;2022-10-29T17:46:51;20.60;99.90
1992;DHT22;997;48.448;8.924;2022-10-29T17:49:16;20.60;99.90
1992;DHT22;997;48.448;8.924;2022-10-29T17:51:42;20.60;99.90
1992;DHT22;997;48.448;8.924;2022-10-29T17:54:10;20.60;99.90
1992;DHT22;997;48.448;8.924;2022-10-29T17:56:36;20.60;99.90
1992;DHT22;997;48.448;8.924;2022-10-29T17:59:01;20.50;99.90
1992;DHT22;997;48.448;8.924;2022-10-29T18:01:27;20.50;99.90
1992;DHT22;997;48.448;8.924;2022-10-29T18:03:53;20.50;99.90
1992;DHT22;997;48.448;8.924;2022-10-29T18:06:18;20.50;99.90
1992;DHT22;997;48.448;8.924;2022-10-29T18:08:44;20.50;99.90
1992;DHT22;997;48.448;8.924;2022-10-29T18:11:15;20.50;99.90
1992;DHT22;997;48.448;8.924;2022-10-29T18:13:42;20.60;99.90
1992;DHT22;997;48.448;8.924;2022-10-29T18:16:14;20.60;99.90
1992;DHT22;997;48.448;8.924;2022-10-29T18:18:40;20.60;99.90
1992;DHT22;997;48.448;8.924;2022-10-29T18:21:08;20.60;99.90
1992;DHT22;997;48.448;8.924;2022-10-29T18:23:34;20.50;99.90
1992;DHT22;997;48.448;8.924;2022-10-29T18:26:05;20.40;99.90
1992;DHT22;997;48.448;8.924;2022-10-29T18:28:32;20.30;99.90
1992;DHT22;997;48.448;8.924;2022-10-29T18:30:58;20.20;99.90
1992;DHT22;997;48.448;8.924;2022-10-29T18:33:25;20.20;99.90
1992;DHT22;997;48.448;8.924;2022-10-29T18:35:54;20.20;99.90
1992;DHT22;997;48.448;8.924;2022-10-29T18:38:21;20.10;99.90
1992;DHT22;997;48.448;8.924;2022-10-29T18:40:54;20.10;99.90
1992;DHT22;997;48.448;8.924;2022-10-29T18:43:21;20.10;99.90
1992;DHT22;997;48.448;8.924;2022-10-29T18:45:59;20.00;99.90
1992;DHT22;997;48.448;8.924;2022-10-29T18:48:25;20.00;99.90
1992;DHT22;997;48.448;8.924;2022-10-29T18:50:52;19.90;99.90
1992;DHT22;997;48.448;8.924;2022-10-29T18:53:18;19.90;99.90
1992;DHT22;997;48.448;8.924;2022-10-29T18:55:48;19.80;99.90
1992;DHT22;997;48.448;8.924;2022-10-29T18:58:14;19.60;99.90
1992;DHT22;997;48.448;8.924;2022-10-29T19:00:40;19.40;99.90
1992;DHT22;997;48.448;8.924;2022-10-29T19:03:07;19.20;99.90
1992;DHT22;997;48.448;8.924;2022-10-29T19:05:34;19.10;99.90
1992;DHT22;997;48.448;8.924;2022-10-29T19:08:00;19.20;99.90
1992;DHT22;997;48.448;8.924;2022-10-29T19:10:26;19.30;99.90
1992;DHT22;997;48.448;8.924;2022-10-29T19:12:51;19.20;99.90
1992;DHT22;997;48.448;8.924;2022-10-29T19:15:17;19.10;99.90
1992;DHT22;997;48.448;8.924;2022-10-29T19:17:43;19.10;99.90
1992;DHT22;997;48.448;8.924;2022-10-29T19:20:09;19.00;99.90
1992;DHT22;997;48.448;8.924;2022-10-29T19:22:34;18.90;99.90
1992;DHT22;997;48.448;8.924;2022-10-29T19:25:00;18.80;99.90
1992;DHT22;997;48.448;8.924;2022-10-29T19:27:26;18.70;99.90
1992;DHT22;997;48.448;8.924;2022-10-29T19:29:51;18.80;99.90
1992;DHT22;997;48.448;8.924;2022-10-29T19:32:17;18.80;99.90
1992;DHT22;997;48.448;8.924;2022-10-29T19:34:43;18.80;99.90
1992;DHT22;997;48.448;8.924;2022-10-29T19:37:09;18.80;99.90
1992;DHT22;997;48.448;8.924;2022-10-29T19:39:35;18.70;99.90
1992;DHT22;997;48.448;8.924;2022-10-29T19:42:01;18.70;99.90
1992;DHT22;997;48.448;8.924;2022-10-29T19:44:27;18.60;99.90
1992;DHT22;997;48.448;8.924;2022-10-29T19:46:52;18.50;99.90
1992;DHT22;997;48.448;8.924;2022-10-29T19:49:19;18.50;99.90
1992;DHT22;997;48.448;8.924;2022-10-29T19:51:45;18.50;99.90
1992;DHT22;997;48.448;8.924;2022-10-29T19:54:11;18.50;99.90
1992;DHT22;997;48.448;8.924;2022-10-29T19:56:36;18.40;99.90
1992;DHT22;997;48.448;8.924;2022-10-29T19:59:03;18.40;99.90
1992;DHT22;997;48.448;8.924;2022-10-29T20:01:29;18.30;99.90
1992;DHT22;997;48.448;8.924;2022-10-29T20:03:56;18.30;99.90
1992;DHT22;997;48.448;8.924;2022-10-29T20:06:22;18.30;99.90
1992;DHT22;997;48.448;8.924;2022-10-29T20:08:49;18.30;99.90
1992;DHT22;997;48.448;8.924;2022-10-29T20:11:15;18.30;99.90
1992;DHT22;997;48.448;8.924;2022-10-29T20:13:40;18.40;99.90
1992;DHT22;997;48.448;8.924;2022-10-29T20:16:08;18.40;99.90
1992;DHT22;997;48.448;8.924;2022-10-29T20:18:35;18.40;99.90
1992;DHT22;997;48.448;8.924;2022-10-29T20:21:02;18.30;99.90
1992;DHT22;997;48.448;8.924;2022-10-29T20:23:28;18.30;99.90
1992;DHT22;997;48.448;8.924;2022-10-29T20:25:54;18.20;99.90
1992;DHT22;997;48.448;8.924;2022-10-29T20:28:19;18.10;99.90
1992;DHT22;997;48.448;8.924;2022-10-29T20:30:45;18.10;99.90
1992;DHT22;997;48.448;8.924;2022-10-29T20:33:11;18.00;99.90
1992;DHT22;997;48.448;8.924;2022-10-29T20:35:37;17.90;99.90
1992;DHT22;997;48.448;8.924;2022-10-29T20:38:03;17.80;99.90
1992;DHT22;997;48.448;8.924;2022-10-29T20:40:29;17.80;99.90
1992;DHT22;997;48.448;8.924;2022-10-29T20:42:54;17.70;99.90
1992;DHT22;997;48.448;8.924;2022-10-29T20:45:20;17.60;99.90
1992;DHT22;997;48.448;8.924;2022-10-29T20:47:46;17.60;99.90
1992;DHT22;997;48.448;8.924;2022-10-29T20:50:11;17.60;99.90
1992;DHT22;997;48.448;8.924;2022-10-29T20:52:37;17.60;99.90
1992;DHT22;997;48.448;8.924;2022-10-29T20:55:03;17.60;99.90
1992;DHT22;997;48.448;8.924;2022-10-29T20:57:29;17.60;99.90
1992;DHT22;997;48.448;8.924;2022-10-29T20:59:55;17.60;99.90
1992;DHT22;997;48.448;8.924;2022-10-29T21:02:23;17.60;99.90
1992;DHT22;997;48.448;8.924;2022-10-29T21:04:48;17.60;99.90
1992;DHT22;997;48.448;8.924;2022-10-29T21:07:14;17.60;99.90
1992;DHT22;997;48.448;8.924;2022-10-29T21:09:39;17.60;99.90
1992;DHT22;997;48.448;8.924;2022-10-29T21:12:05;17.50;99.90
1992;DHT22;997;48.448;8.924;2022-10-29T21:14:31;17.50;99.90
1992;DHT22;997;48.448;8.924;2022-10-29T21:16:57;17.50;99.90
1992;DHT22;997;48.448;8.924;2022-10-29T21:19:23;17.50;99.90
1992;DHT22;997;48.448;8.924;2022-10-29T21:21:49;17.50;99.90
1992;DHT22;997;48.448;8.924;2022-10-29T21:24:14;17.50;99.90
1992;DHT22;997;48.448;8.924;2022-10-29T21:26:42;17.40;99.90
1992;DHT22;997;48.448;8.924;2022-10-29T21:29:07;17.50;99.90
